Time;durP1;ratioP1;P1;durP2;ratioP2;P2;SDS_P1;SDS_P2;PMS_P1;PMS_P2;Temp;Humidity;BMP_temperature;BMP_pressure;BME280_temperature;BME280_humidity;BME280_pressure;Samples;Min_cycle;Max_cycle;Signal;HPM_P1;HPM_P2
2024/01/22 00:05:38;;;;;;;6.18;4.70;;;;;;;19.84;41.19;97636.78;20844696;28;20054;-72
2024/01/22 00:15:58;;;;;;;8.13;4.05;;;;;;;19.87;40.86;97646.97;20747072;28;20073;-72
2024/01/22 00:26:18;;;;;;;7.28;4.38;;;;;;;19.81;40.90;97639.28;20773945;28;20050;-73
2024/01/22 00:36:37;;;;;;;5.68;4.20;;;;;;;19.73;40.88;97638.91;20828829;28;20744;-72
2024/01/22 00:46:57;;;;;;;5.10;3.92;;;;;;;19.72;41.00;97628.41;20808547;28;20085;-73
2024/01/22 00:57:16;;;;;;;5.55;4.07;;;;;;;19.69;40.86;97607.34;20736288;28;20050;-75
2024/01/22 01:07:36;;;;;;;5.97;4.05;;;;;;;19.65;41.03;97598.25;20787992;28;20057;-76
2024/01/22 01:17:56;;;;;;;4.65;3.83;;;;;;;19.63;40.89;97571.53;20779189;28;20056;-75
2024/01/22 01:28:15;;;;;;;5.45;4.00;;;;;;;19.60;40.97;97571.31;20766985;28;20061;-75
2024/01/22 01:38:36;;;;;;;7.63;4.35;;;;;;;19.55;40.86;97566.84;20753275;28;20061;-75
2024/01/22 01:48:56;;;;;;;4.63;3.58;;;;;;;19.50;40.59;97559.66;20773615;28;20057;-75
2024/01/22 01:59:16;;;;;;;5.88;3.92;;;;;;;19.44;40.59;97549.25;20795131;28;20050;-73
2024/01/22 02:09:46;;;;;;;4.55;3.60;;;;;;;19.40;40.92;97507.75;20750882;28;20057;-72
2024/01/22 02:20:06;;;;;;;5.38;3.83;;;;;;;19.39;40.98;97474.53;20790758;28;20053;-72
2024/01/22 02:30:25;;;;;;;4.93;4.07;;;;;;;19.31;40.73;97488.78;20752069;28;20060;-72
2024/01/22 02:40:45;;;;;;;4.53;3.53;;;;;;;19.26;40.68;97483.47;20793106;28;20053;-73
2024/01/22 02:51:11;;;;;;;4.18;3.47;;;;;;;19.19;40.71;97458.78;20753736;28;20054;-73
2024/01/22 03:01:30;;;;;;;3.85;3.45;;;;;;;19.12;40.60;97453.81;20773106;28;20105;-73
2024/01/22 03:11:49;;;;;;;4.18;3.40;;;;;;;19.13;40.72;97431.09;20794677;28;20115;-75
2024/01/22 03:22:09;;;;;;;4.68;3.65;;;;;;;19.06;40.59;97390.22;20816816;28;20056;-76
2024/01/22 03:32:28;;;;;;;4.22;3.58;;;;;;;19.02;40.74;97381.94;20791333;28;20612;-75
2024/01/22 03:42:47;;;;;;;5.55;3.83;;;;;;;18.98;40.76;97372.84;20856259;28;20050;-75
2024/01/22 03:53:07;;;;;;;4.20;3.20;;;;;;;18.94;40.74;97361.84;20758331;28;20101;-75
2024/01/22 04:03:26;;;;;;;3.78;3.20;;;;;;;18.90;40.62;97341.19;20773240;28;20558;-76
2024/01/22 04:13:46;;;;;;;3.10;2.80;;;;;;;18.87;40.60;97334.47;20790047;28;20056;-76
2024/01/22 04:24:05;;;;;;;3.58;3.05;;;;;;;18.83;40.65;97303.81;20750940;28;20384;-73
2024/01/22 04:34:25;;;;;;;4.18;3.25;;;;;;;18.81;40.70;97292.53;20774614;28;20057;-73
2024/01/22 04:44:44;;;;;;;3.92;2.92;;;;;;;18.80;40.50;97295.53;20827336;28;20049;-73
2024/01/22 04:55:04;;;;;;;3.38;3.08;;;;;;;18.72;40.71;97278.16;20758087;28;20053;-72
2024/01/22 05:05:23;;;;;;;3.25;2.88;;;;;;;18.66;40.69;97269.38;20732867;28;20387;-72
2024/01/22 05:15:43;;;;;;;4.10;2.90;;;;;;;18.70;41.85;97256.88;20768875;28;20054;-72
2024/01/22 05:26:02;;;;;;;3.53;2.80;;;;;;;18.70;41.70;97258.75;20751841;28;20049;-72
2024/01/22 05:36:22;;;;;;;3.83;2.88;;;;;;;18.71;41.65;97244.94;20784751;28;20053;-72
2024/01/22 05:46:41;;;;;;;3.25;2.70;;;;;;;18.73;41.91;97231.16;20798905;28;20057;-72
2024/01/22 05:57:01;;;;;;;3.65;2.70;;;;;;;18.75;42.73;97216.25;20767364;28;20057;-72
2024/01/22 06:07:21;;;;;;;4.03;2.70;;;;;;;18.76;42.81;97217.84;20767590;28;20108;-72
2024/01/22 06:17:40;;;;;;;13.90;4.40;;;;;;;18.78;42.86;97221.03;20735070;28;20054;-73
2024/01/22 06:28:00;;;;;;;13.75;4.38;;;;;;;18.88;42.92;97216.53;20766154;28;20526;-72
2024/01/22 06:38:19;;;;;;;11.73;4.07;;;;;;;18.98;42.60;97200.06;20791655;28;20060;-73
2024/01/22 06:48:39;;;;;;;10.20;4.43;;;;;;;19.04;42.55;97208.81;20756518;28;20407;-72
2024/01/22 06:58:59;;;;;;;8.00;4.18;;;;;;;19.12;42.23;97200.75;20803156;28;20072;-72
2024/01/22 07:09:18;;;;;;;10.45;4.85;;;;;;;19.20;42.10;97199.19;20790387;28;20411;-72
2024/01/22 07:19:38;;;;;;;9.95;4.15;;;;;;;19.32;41.89;97199.38;20789611;28;20053;-72
2024/01/22 07:29:57;;;;;;;9.32;4.15;;;;;;;19.45;41.92;97210.41;20789910;28;20634;-72
2024/01/22 07:40:18;;;;;;;8.45;4.22;;;;;;;19.54;41.63;97209.31;20749907;28;20104;-72
2024/01/22 07:50:37;;;;;;;6.38;3.72;;;;;;;19.66;41.46;97188.97;20768698;28;20072;-72
2024/01/22 08:00:57;;;;;;;6.90;3.47;;;;;;;19.67;41.21;97172.47;20760647;28;20050;-72
2024/01/22 08:11:18;;;;;;;7.65;4.00;;;;;;;19.84;40.91;97170.94;20760182;28;20056;-72
2024/01/22 08:21:38;;;;;;;6.65;3.58;;;;;;;19.92;40.68;97129.59;20773080;28;20050;-72
2024/01/22 08:31:57;;;;;;;5.65;3.47;;;;;;;19.98;40.81;97108.59;20785718;28;20418;-72
2024/01/22 08:42:16;;;;;;;7.93;3.78;;;;;;;20.03;40.62;97122.75;20749331;28;20143;-72
2024/01/22 08:52:36;;;;;;;6.28;3.55;;;;;;;20.11;40.59;97110.31;20744560;28;20058;-73
2024/01/22 09:02:56;;;;;;;5.35;3.10;;;;;;;20.21;40.33;97110.00;20770510;28;20051;-72
2024/01/22 09:13:15;;;;;;;5.57;3.65;;;;;;;20.28;40.21;97131.94;20754939;28;20075;-72
2024/01/22 09:23:34;;;;;;;4.25;2.70;;;;;;;20.32;40.19;97129.38;20739828;28;20053;-72
2024/01/22 09:33:54;;;;;;;5.85;3.20;;;;;;;20.38;40.00;97117.28;20757741;28;20423;-72
2024/01/22 09:44:14;;;;;;;4.78;3.00;;;;;;;20.37;39.89;97106.78;20734870;28;20042;-72
2024/01/22 09:54:34;;;;;;;3.83;2.55;;;;;;;20.49;39.75;97071.72;20749178;28;20050;-72
2024/01/22 10:04:53;;;;;;;4.57;2.70;;;;;;;20.58;39.73;97042.72;20765444;28;20046;-72
2024/01/22 10:15:13;;;;;;;4.45;2.88;;;;;;;20.66;39.44;97005.91;20765806;28;20080;-72
2024/01/22 10:25:33;;;;;;;4.60;2.67;;;;;;;20.66;39.57;96984.25;20736144;28;20419;-72
2024/01/22 10:35:53;;;;;;;3.63;2.55;;;;;;;20.68;39.33;96977.41;20723662;28;20053;-73
2024/01/22 10:46:13;;;;;;;2.90;2.30;;;;;;;20.76;39.15;96967.66;20721428;28;20477;-72
2024/01/22 10:56:34;;;;;;;3.35;2.35;;;;;;;20.76;39.08;96953.31;20725906;28;20426;-72
2024/01/22 11:06:58;;;;;;;3.17;2.50;;;;;;;20.75;39.12;96947.13;20748377;28;20402;-73
2024/01/22 11:17:19;;;;;;;2.55;2.22;;;;;;;20.83;39.21;96953.59;20746263;28;20479;-72
2024/01/22 11:27:43;;;;;;;2.50;2.15;;;;;;;20.83;39.02;96924.59;20721484;28;20284;-72
2024/01/22 11:38:04;;;;;;;3.38;2.50;;;;;;;20.78;39.14;96888.78;20761957;28;20069;-72
2024/01/22 11:48:24;;;;;;;3.20;2.10;;;;;;;20.81;39.25;96875.41;20775902;28;20045;-72
2024/01/22 11:58:44;;;;;;;3.03;2.00;;;;;;;20.80;39.21;96848.69;20775219;28;20112;-72
2024/01/22 12:09:03;;;;;;;2.67;2.17;;;;;;;20.75;39.38;96825.28;20774536;28;20053;-72
2024/01/22 12:19:22;;;;;;;2.72;2.10;;;;;;;20.73;39.30;96811.28;20758314;28;20046;-72
2024/01/22 12:29:42;;;;;;;2.58;1.85;;;;;;;20.72;39.23;96817.84;20757358;28;20046;-72
2024/01/22 12:40:07;;;;;;;2.20;2.00;;;;;;;20.65;39.54;96807.53;20772279;28;20153;-72
2024/01/22 12:50:27;;;;;;;2.15;1.85;;;;;;;20.62;39.39;96804.69;20748665;28;20054;-72
2024/01/22 13:00:47;;;;;;;1.80;1.70;;;;;;;20.59;39.43;96806.16;20770865;28;20061;-72
2024/01/22 13:11:06;;;;;;;2.60;2.03;;;;;;;20.57;39.50;96796.75;20755169;28;20066;-72
2024/01/22 13:21:25;;;;;;;1.98;1.70;;;;;;;20.54;39.46;96784.66;20736899;28;20053;-73
2024/01/22 13:31:45;;;;;;;2.38;1.35;;;;;;;20.49;39.61;96769.41;20768053;28;20050;-72
2024/01/22 13:42:06;;;;;;;2.33;1.92;;;;;;;20.45;39.71;96740.66;20752683;28;20422;-75
2024/01/22 13:52:26;;;;;;;2.65;1.85;;;;;;;20.43;39.62;96722.03;20740437;28;20054;-75
2024/01/22 14:02:45;;;;;;;3.38;1.98;;;;;;;20.38;39.73;96727.63;20766500;28;20050;-75
2024/01/22 14:13:05;;;;;;;1.63;1.52;;;;;;;20.37;39.82;96728.00;20746508;28;20060;-75
2024/01/22 14:23:25;;;;;;;2.10;1.60;;;;;;;20.31;39.96;96732.81;20750240;28;20396;-75
2024/01/22 14:33:45;;;;;;;1.55;1.45;;;;;;;20.26;40.03;96746.53;20737840;28;20069;-75
2024/01/22 14:44:04;;;;;;;2.53;1.73;;;;;;;20.21;40.16;96725.88;20749904;28;20046;-75
2024/01/22 14:54:24;;;;;;;1.30;1.20;;;;;;;20.19;40.17;96692.16;20744003;28;20383;-75
2024/01/22 15:04:43;;;;;;;2.00;1.35;;;;;;;20.18;40.19;96690.59;20779746;28;20054;-75
2024/01/22 15:15:03;;;;;;;1.70;1.50;;;;;;;20.09;40.16;96683.34;20744493;28;20065;-75
2024/01/22 15:25:24;;;;;;;1.80;1.70;;;;;;;20.08;40.12;96659.31;20752036;28;20073;-75
2024/01/22 15:35:44;;;;;;;1.80;1.60;;;;;;;20.03;40.21;96641.41;20762987;28;20064;-75
2024/01/22 15:46:04;;;;;;;1.58;1.35;;;;;;;20.00;40.36;96654.78;20762297;28;20060;-75
2024/01/22 15:56:23;;;;;;;1.70;1.50;;;;;;;19.95;40.31;96648.44;20738615;28;20062;-75
2024/01/22 16:06:43;;;;;;;1.63;1.50;;;;;;;19.92;40.33;96627.47;20766783;28;20054;-73
2024/01/22 16:17:02;;;;;;;1.52;1.25;;;;;;;19.93;40.45;96644.47;20774774;28;20049;-73
2024/01/22 16:27:23;;;;;;;1.55;1.25;;;;;;;19.84;40.51;96644.56;20773516;28;20104;-73
2024/01/22 16:37:43;;;;;;;1.40;1.30;;;;;;;19.86;40.54;96642.31;20772730;28;20081;-73
2024/01/22 16:48:02;;;;;;;1.42;1.25;;;;;;;19.87;40.54;96660.09;20741778;28;20104;-73
2024/01/22 16:58:22;;;;;;;1.33;1.23;;;;;;;19.91;40.37;96668.34;20729340;28;20050;-73
2024/01/22 17:08:41;;;;;;;1.50;1.30;;;;;;;19.89;40.43;96647.03;20747072;28;20088;-73
2024/01/22 17:19:03;;;;;;;1.67;1.45;;;;;;;19.95;40.44;96653.03;20769182;28;20054;-75
2024/01/22 17:29:23;;;;;;;1.08;0.98;;;;;;;19.97;40.13;96656.22;20752342;28;20054;-75
2024/01/22 17:39:42;;;;;;;2.45;1.83;;;;;;;20.02;39.12;96649.84;20754703;28;20415;-76
2024/01/22 17:50:02;;;;;;;2.92;1.50;;;;;;;20.07;39.44;96666.66;20701464;28;20052;-75
2024/01/22 18:00:23;;;;;;;1.98;1.55;;;;;;;20.17;39.62;96653.81;20701378;28;20055;-75
2024/01/22 18:10:43;;;;;;;1.77;1.48;;;;;;;20.21;39.65;96658.25;20725260;28;20049;-76
2024/01/22 18:21:03;;;;;;;1.73;1.48;;;;;;;20.29;39.96;96667.44;20701242;28;20081;-75
2024/01/22 18:31:25;;;;;;;1.83;1.40;;;;;;;20.35;40.05;96676.91;20696922;28;20375;-76
2024/01/22 18:41:44;;;;;;;1.80;1.30;;;;;;;20.42;40.13;96676.38;20731221;28;20054;-77
2024/01/22 18:52:04;;;;;;;1.60;1.50;;;;;;;20.48;39.98;96686.66;20689238;28;20400;-75
2024/01/22 19:02:24;;;;;;;1.63;1.30;;;;;;;20.54;39.99;96700.75;20664204;28;20060;-77
2024/01/22 19:12:43;;;;;;;3.33;1.45;;;;;;;20.61;41.15;96727.34;20745970;28;20078;-80
2024/01/22 19:23:03;;;;;;;5.63;1.70;;;;;;;20.67;41.63;96743.03;20720284;28;20057;-75
2024/01/22 19:33:23;;;;;;;2.28;1.50;;;;;;;20.66;42.07;96746.06;20739481;28;20054;-76
2024/01/22 19:43:43;;;;;;;3.50;1.63;;;;;;;20.70;41.99;96772.16;20739042;28;20055;-76
2024/01/22 19:54:02;;;;;;;6.03;1.50;;;;;;;20.77;41.80;96770.81;20773199;28;20054;-76
2024/01/22 20:04:22;;;;;;;3.58;1.40;;;;;;;20.80;41.84;96773.66;20799268;28;20173;-77
2024/01/22 20:14:41;;;;;;;2.70;1.30;;;;;;;20.84;41.77;96798.16;20800420;28;20454;-75
2024/01/22 20:25:01;;;;;;;5.07;2.00;;;;;;;20.85;41.55;96780.75;20758609;28;20061;-76
2024/01/22 20:35:20;;;;;;;5.68;2.22;;;;;;;20.82;41.72;96759.78;20754482;28;20089;-75
2024/01/22 20:45:40;;;;;;;2.72;2.00;;;;;;;20.86;41.75;96793.19;20734064;28;20061;-76
2024/01/22 20:56:00;;;;;;;2.50;1.80;;;;;;;20.82;41.70;96847.22;20726962;28;20116;-76
2024/01/22 21:06:19;;;;;;;3.10;1.67;;;;;;;20.79;41.86;96841.66;20750483;28;20081;-75
2024/01/22 21:16:39;;;;;;;2.13;1.58;;;;;;;20.81;42.04;96842.13;20734572;28;20077;-75
2024/01/22 21:27:04;;;;;;;1.98;1.50;;;;;;;20.76;42.13;96848.53;20695347;28;20088;-75
2024/01/22 21:37:23;;;;;;;2.72;1.90;;;;;;;20.76;42.11;96850.44;20694765;28;20042;-75
2024/01/22 21:47:43;;;;;;;6.60;2.03;;;;;;;20.73;42.17;96838.34;20714047;28;20084;-75
2024/01/22 21:58:03;;;;;;;2.30;1.52;;;;;;;20.73;41.50;96863.50;20737125;28;20050;-75
2024/01/22 22:08:22;;;;;;;2.53;1.60;;;;;;;20.68;41.47;96866.44;20732435;28;21292;-75
2024/01/22 22:18:45;;;;;;;3.42;1.67;;;;;;;20.65;41.65;96880.59;20781187;28;20049;-75
2024/01/22 22:29:05;;;;;;;3.42;1.60;;;;;;;20.64;41.71;96878.22;20800177;28;20422;-75
2024/01/22 22:39:24;;;;;;;2.45;1.50;;;;;;;20.54;41.78;96890.19;20787187;28;20076;-75
2024/01/22 22:49:44;;;;;;;3.30;1.70;;;;;;;20.52;41.88;96892.44;20779101;28;20054;-75
2024/01/22 23:00:04;;;;;;;3.40;1.20;;;;;;;20.50;41.97;96922.56;20748963;28;20069;-76
2024/01/22 23:10:24;;;;;;;2.05;1.40;;;;;;;20.46;42.01;96929.72;20757772;28;20100;-75
2024/01/22 23:20:44;;;;;;;2.58;1.70;;;;;;;20.41;42.09;96938.03;20812256;28;20061;-75
2024/01/22 23:31:03;;;;;;;4.25;1.60;;;;;;;20.32;42.07;96932.66;20779489;28;20046;-75
2024/01/22 23:41:23;;;;;;;1.65;1.25;;;;;;;20.32;41.94;96937.28;20755273;28;20487;-75
2024/01/22 23:51:42;;;;;;;1.92;1.48;;;;;;;20.28;41.91;96920.13;20732891;28;20499;-75
